createdAt,value
2019-03-23T00:00:36.488Z,5.10
2019-03-23T00:03:04.709Z,4.70
2019-03-23T00:05:33.630Z,5.60
2019-03-23T00:08:02.626Z,5.13
2019-03-23T00:10:31.214Z,4.90
2019-03-23T00:12:59.485Z,4.63
2019-03-23T00:15:27.425Z,4.97
2019-03-23T00:17:55.347Z,5.97
2019-03-23T00:20:23.556Z,5.97
2019-03-23T00:22:51.694Z,4.90
2019-03-23T00:25:20.061Z,5.17
2019-03-23T00:27:48.641Z,4.27
2019-03-23T00:30:16.913Z,4.60
2019-03-23T00:32:45.493Z,5.07
2019-03-23T00:35:13.401Z,4.80
2019-03-23T00:37:41.319Z,4.97
2019-03-23T00:40:09.518Z,5.03
2019-03-23T00:42:37.985Z,5.23
2019-03-23T00:45:06.260Z,4.93
2019-03-23T00:47:34.186Z,5.40
2019-03-23T00:50:02.377Z,4.60
2019-03-23T00:52:30.653Z,5.23
2019-03-23T00:54:59.161Z,4.87
2019-03-23T00:57:27.082Z,5.10
2019-03-23T00:59:55.718Z,4.70
2019-03-23T01:02:23.966Z,4.63
2019-03-23T01:04:52.169Z,4.40
2019-03-23T01:07:21.161Z,5.20
2019-03-23T01:09:49.403Z,4.73
2019-03-23T01:12:17.614Z,4.90
2019-03-23T01:14:46.093Z,4.73
2019-03-23T01:17:14.328Z,4.60
2019-03-23T01:19:42.644Z,5.00
2019-03-23T01:22:11.209Z,4.50
2019-03-23T01:24:39.401Z,5.00
2019-03-23T01:27:07.690Z,4.53
2019-03-23T01:29:35.701Z,4.85
2019-03-23T01:32:04.337Z,5.30
2019-03-23T01:34:32.593Z,5.13
2019-03-23T01:37:02.960Z,4.70
2019-03-23T01:39:30.994Z,5.07
2019-03-23T01:41:59.807Z,4.97
2019-03-23T01:44:28.250Z,5.03
2019-03-23T01:46:56.917Z,5.33
2019-03-23T01:49:24.870Z,5.37
2019-03-23T01:51:53.138Z,5.40
2019-03-23T01:54:21.359Z,5.20
2019-03-23T01:56:49.599Z,6.03
2019-03-23T01:59:17.801Z,5.40
2019-03-23T02:01:46.638Z,6.80
2019-03-23T02:04:14.967Z,5.63
2019-03-23T02:06:43.896Z,5.93
2019-03-23T02:09:11.882Z,5.60
2019-03-23T02:11:40.342Z,5.87
2019-03-23T02:14:08.985Z,5.80
2019-03-23T02:16:37.610Z,5.80
2019-03-23T02:19:05.790Z,5.60
2019-03-23T02:21:34.379Z,5.57
2019-03-23T02:24:02.605Z,6.20
2019-03-23T02:26:31.126Z,5.53
2019-03-23T02:28:59.765Z,5.67
2019-03-23T02:31:27.970Z,5.83
2019-03-23T02:33:56.156Z,6.00
2019-03-23T02:36:24.116Z,6.37
2019-03-23T02:38:52.714Z,6.03
2019-03-23T02:41:20.659Z,5.97
2019-03-23T02:43:49.221Z,6.10
2019-03-23T02:46:17.398Z,5.67
2019-03-23T02:48:45.739Z,5.77
2019-03-23T02:51:14.001Z,6.27
2019-03-23T02:53:42.637Z,5.80
2019-03-23T02:56:10.949Z,6.70
2019-03-23T02:58:39.604Z,6.20
2019-03-23T03:01:07.909Z,5.50
2019-03-23T03:03:36.144Z,5.50
2019-03-23T03:06:04.066Z,5.97
2019-03-23T03:08:32.386Z,6.13
2019-03-23T03:11:00.918Z,6.40
2019-03-23T03:13:29.157Z,5.93
2019-03-23T03:15:57.755Z,6.53
2019-03-23T03:18:25.680Z,7.00
2019-03-23T03:20:53.606Z,6.23
2019-03-23T03:23:22.299Z,6.87
2019-03-23T03:25:50.552Z,7.03
2019-03-23T03:28:19.245Z,7.00
2019-03-23T03:30:47.528Z,7.67
2019-03-23T03:33:15.756Z,8.57
2019-03-23T03:35:44.046Z,9.07
2019-03-23T03:38:12.278Z,9.47
2019-03-23T03:40:40.472Z,10.27
2019-03-23T03:43:08.919Z,9.93
2019-03-23T03:45:37.519Z,11.30
2019-03-23T03:48:05.798Z,11.70
2019-03-23T03:50:34.340Z,17.50
2019-03-23T03:53:02.639Z,28.90
2019-03-23T03:55:30.855Z,29.93
2019-03-23T03:57:59.337Z,36.60
2019-03-23T04:00:27.278Z,39.63
2019-03-23T04:02:55.457Z,41.20
2019-03-23T04:05:24.109Z,41.40
2019-03-23T04:07:52.604Z,40.30
2019-03-23T04:10:20.542Z,40.90
2019-03-23T04:12:48.718Z,42.33
2019-03-23T04:15:16.738Z,40.43
2019-03-23T04:17:45.712Z,42.13
2019-03-23T04:20:14.371Z,38.57
2019-03-23T04:22:42.318Z,41.10
2019-03-23T04:25:10.981Z,41.50
2019-03-23T04:27:38.959Z,40.57
2019-03-23T04:30:07.684Z,41.67
2019-03-23T04:32:36.046Z,41.33
2019-03-23T04:35:04.482Z,39.83
2019-03-23T04:37:32.755Z,41.63
2019-03-23T04:40:01.347Z,44.13
2019-03-23T04:42:29.529Z,41.80
2019-03-23T04:44:57.737Z,43.90
2019-03-23T04:47:25.968Z,44.83
2019-03-23T04:49:54.240Z,47.07
2019-03-23T04:52:22.825Z,45.97
2019-03-23T04:54:51.065Z,45.70
2019-03-23T04:57:19.349Z,45.50
2019-03-23T04:59:47.866Z,46.63
2019-03-23T05:02:16.158Z,45.70
2019-03-23T05:04:44.088Z,45.40
2019-03-23T05:07:12.409Z,44.70
2019-03-23T05:09:40.657Z,46.17
2019-03-23T05:12:09.538Z,44.70
2019-03-23T05:14:37.832Z,45.53
2019-03-23T05:17:06.021Z,45.10
2019-03-23T05:19:33.969Z,46.37
2019-03-23T05:22:02.447Z,45.07
2019-03-23T05:24:31.088Z,44.73
2019-03-23T05:26:59.748Z,44.53
2019-03-23T05:29:27.948Z,42.70
2019-03-23T05:31:56.169Z,43.80
2019-03-23T05:34:24.263Z,45.77
2019-03-23T05:36:52.757Z,45.07
2019-03-23T05:39:21.352Z,46.50
2019-03-23T05:41:49.586Z,44.50
2019-03-23T05:44:18.177Z,45.13
2019-03-23T05:46:46.653Z,45.23
2019-03-23T05:49:14.915Z,44.80
2019-03-23T05:51:43.109Z,43.00
2019-03-23T05:54:11.268Z,46.47
2019-03-23T05:56:39.317Z,43.70
2019-03-23T05:59:07.878Z,45.17
2019-03-23T06:01:36.614Z,45.33
2019-03-23T06:04:05.399Z,45.20
2019-03-23T06:06:33.625Z,46.90
2019-03-23T06:09:02.161Z,43.77
2019-03-23T06:11:30.382Z,44.43
2019-03-23T06:13:59.012Z,45.57
2019-03-23T06:16:27.529Z,45.23
2019-03-23T06:18:56.181Z,45.00
2019-03-23T06:21:24.464Z,44.87
2019-03-23T06:23:52.722Z,45.37
2019-03-23T06:26:20.998Z,44.60
2019-03-23T06:28:48.934Z,46.97
2019-03-23T06:31:17.417Z,42.90
2019-03-23T06:33:46.356Z,44.27
2019-03-23T06:36:14.811Z,43.33
2019-03-23T06:38:43.102Z,45.57
2019-03-23T06:41:11.020Z,42.47
2019-03-23T06:43:39.681Z,45.87
2019-03-23T06:46:08.259Z,44.73
2019-03-23T06:48:36.821Z,46.70
2019-03-23T06:51:05.002Z,43.40
2019-03-23T06:53:33.597Z,44.63
2019-03-23T06:56:04.940Z,43.77
2019-03-23T06:58:32.918Z,42.73
2019-03-23T07:01:01.553Z,45.93
2019-03-23T07:03:29.864Z,44.37
2019-03-23T07:05:57.813Z,46.23
2019-03-23T07:08:31.838Z,44.03
2019-03-23T07:10:56.329Z,43.70
2019-03-23T07:13:24.249Z,43.20
2019-03-23T07:15:52.198Z,44.80
2019-03-23T07:18:21.471Z,44.80
2019-03-23T07:20:49.788Z,43.50
2019-03-23T07:23:17.728Z,45.00
2019-03-23T07:25:46.007Z,44.27
2019-03-23T07:28:14.330Z,44.40
2019-03-23T07:30:42.613Z,44.37
2019-03-23T07:33:10.885Z,44.93
2019-03-23T07:35:39.504Z,45.23
2019-03-23T07:38:08.025Z,44.33
2019-03-23T07:40:37.499Z,44.93
2019-03-23T07:43:06.394Z,41.90
2019-03-23T07:45:35.109Z,46.67
2019-03-23T07:48:03.051Z,44.13
2019-03-23T07:50:32.142Z,46.27
2019-03-23T07:53:00.612Z,44.70
2019-03-23T07:55:29.181Z,43.57
2019-03-23T07:57:57.409Z,44.97
2019-03-23T08:00:25.377Z,43.50
2019-03-23T08:02:53.902Z,45.43
2019-03-23T08:05:21.938Z,43.97
2019-03-23T08:07:50.581Z,45.00
2019-03-23T08:10:25.073Z,46.10
2019-03-23T08:12:53.017Z,44.80
2019-03-23T08:15:20.954Z,44.63
2019-03-23T08:17:49.602Z,43.50
2019-03-23T08:20:17.535Z,44.77
2019-03-23T08:22:45.750Z,42.90
2019-03-23T08:25:13.748Z,44.53
2019-03-23T08:27:42.319Z,40.93
2019-03-23T08:30:10.585Z,40.97
2019-03-23T08:32:38.524Z,41.77
2019-03-23T08:35:06.494Z,39.80
2019-03-23T08:37:35.136Z,41.00
2019-03-23T08:40:03.400Z,41.00
2019-03-23T08:42:32.108Z,39.53
2019-03-23T08:45:00.990Z,39.60
2019-03-23T08:47:28.917Z,38.67
2019-03-23T08:49:59.538Z,37.83
2019-03-23T08:52:29.005Z,38.57
2019-03-23T08:54:57.637Z,39.80
2019-03-23T08:57:25.956Z,39.90
2019-03-23T08:59:54.517Z,39.00
2019-03-23T09:02:23.297Z,38.47
2019-03-23T09:04:51.553Z,39.43
2019-03-23T09:07:19.488Z,39.03
2019-03-23T09:09:47.738Z,39.00
2019-03-23T09:12:16.352Z,39.37
2019-03-23T09:14:45.101Z,39.90
2019-03-23T09:17:13.354Z,40.43
2019-03-23T09:19:41.526Z,38.67
2019-03-23T09:22:10.070Z,39.50
2019-03-23T09:24:38.338Z,39.03
2019-03-23T09:27:06.569Z,40.87
2019-03-23T09:29:35.064Z,40.57
2019-03-23T09:32:03.241Z,40.10
2019-03-23T09:34:32.089Z,40.13
2019-03-23T09:37:00.098Z,39.97
2019-03-23T09:39:28.402Z,41.40
2019-03-23T09:41:56.345Z,39.57
2019-03-23T09:44:24.905Z,39.10
2019-03-23T09:46:52.925Z,38.77
2019-03-23T09:49:22.124Z,39.50
2019-03-23T09:51:50.438Z,40.07
2019-03-23T09:54:18.701Z,38.83
2019-03-23T09:56:46.926Z,39.10
2019-03-23T09:59:14.854Z,37.70
2019-03-23T10:01:43.065Z,36.80
2019-03-23T10:04:11.302Z,38.07
2019-03-23T10:06:39.536Z,38.97
2019-03-23T10:09:07.496Z,37.27
2019-03-23T10:11:35.502Z,38.33
2019-03-23T10:14:04.045Z,38.90
2019-03-23T10:16:32.609Z,40.07
2019-03-23T10:19:01.423Z,37.27
2019-03-23T10:21:29.396Z,36.90
2019-03-23T10:23:57.382Z,37.70
2019-03-23T10:26:25.937Z,37.70
2019-03-23T10:28:54.590Z,36.97
2019-03-23T10:31:22.513Z,36.37
2019-03-23T10:33:50.417Z,35.90
2019-03-23T10:36:22.544Z,35.37
2019-03-23T10:38:50.695Z,37.03
2019-03-23T10:41:18.605Z,37.10
2019-03-23T10:43:46.987Z,36.13
2019-03-23T10:46:15.182Z,37.60
2019-03-23T10:48:43.389Z,35.33
2019-03-23T10:51:11.301Z,35.43
2019-03-23T10:53:39.949Z,38.67
2019-03-23T10:56:07.876Z,37.50
2019-03-23T10:58:36.406Z,36.47
2019-03-23T11:01:05.044Z,34.70
2019-03-23T11:03:32.997Z,35.03
2019-03-23T11:06:01.597Z,36.17
2019-03-23T11:08:30.221Z,35.20
2019-03-23T11:10:58.140Z,35.33
2019-03-23T11:13:26.390Z,36.40
2019-03-23T11:15:54.668Z,37.40
2019-03-23T11:18:23.229Z,36.77
2019-03-23T11:20:51.153Z,36.33
2019-03-23T11:23:19.681Z,35.43
2019-03-23T11:25:48.170Z,36.40
2019-03-23T11:28:16.421Z,37.13
2019-03-23T11:30:44.734Z,37.37
2019-03-23T11:33:13.409Z,35.13
2019-03-23T11:35:41.626Z,36.70
2019-03-23T11:38:09.948Z,35.60
2019-03-23T11:40:38.193Z,36.87
2019-03-23T11:43:06.105Z,36.30
2019-03-23T11:45:34.685Z,37.17
2019-03-23T11:48:02.914Z,37.70
2019-03-23T11:50:31.140Z,37.43
2019-03-23T11:52:59.361Z,36.67
2019-03-23T11:55:27.570Z,37.80
2019-03-23T11:57:56.313Z,36.50
2019-03-23T12:00:24.213Z,36.77
2019-03-23T12:02:52.459Z,37.40
2019-03-23T12:05:21.010Z,37.30
2019-03-23T12:07:49.267Z,39.00
2019-03-23T12:10:17.572Z,37.83
2019-03-23T12:12:45.802Z,37.60
2019-03-23T12:15:14.112Z,38.97
2019-03-23T12:17:42.317Z,37.73
2019-03-23T12:20:10.686Z,38.73
2019-03-23T12:22:38.698Z,37.07
2019-03-23T12:25:06.829Z,36.33
2019-03-23T12:27:35.290Z,37.53
2019-03-23T12:30:07.419Z,38.50
2019-03-23T12:32:33.773Z,37.10
2019-03-23T12:35:02.018Z,36.30
2019-03-23T12:37:29.933Z,37.37
2019-03-23T12:39:58.305Z,35.77
2019-03-23T12:42:26.875Z,37.97
2019-03-23T12:44:55.120Z,39.30
2019-03-23T12:47:23.608Z,37.60
2019-03-23T12:49:51.557Z,38.43
2019-03-23T12:52:19.839Z,38.37
2019-03-23T12:54:47.785Z,37.10
2019-03-23T12:57:16.100Z,36.23
2019-03-23T12:59:44.585Z,36.77
2019-03-23T13:02:12.909Z,38.30
2019-03-23T13:04:41.555Z,36.97
2019-03-23T13:07:10.174Z,38.57
2019-03-23T13:09:38.089Z,36.17
2019-03-23T13:12:06.517Z,37.87
2019-03-23T13:14:34.977Z,37.90
2019-03-23T13:17:03.593Z,38.10
2019-03-23T13:19:31.509Z,38.30
2019-03-23T13:22:00.122Z,36.30
2019-03-23T13:24:28.893Z,37.53
2019-03-23T13:26:56.833Z,36.40
2019-03-23T13:29:25.041Z,35.63
2019-03-23T13:31:53.364Z,34.37
2019-03-23T13:34:21.871Z,32.80
2019-03-23T13:36:50.122Z,33.87
2019-03-23T13:39:18.033Z,33.23
2019-03-23T13:41:49.211Z,33.70
2019-03-23T13:44:17.533Z,33.10
2019-03-23T13:46:46.273Z,32.80
2019-03-23T13:49:14.552Z,32.20
2019-03-23T13:51:43.328Z,32.73
2019-03-23T13:54:11.558Z,31.73
2019-03-23T13:56:39.488Z,32.37
2019-03-23T13:59:08.139Z,33.70
2019-03-23T14:01:36.078Z,29.17
2019-03-23T14:04:04.025Z,30.20
2019-03-23T14:06:32.221Z,29.40
2019-03-23T14:09:00.441Z,29.60
2019-03-23T14:11:28.673Z,28.50
2019-03-23T14:13:56.965Z,29.33
2019-03-23T14:16:25.534Z,29.60
2019-03-23T14:18:53.848Z,29.80
2019-03-23T14:21:22.153Z,30.13
2019-03-23T14:23:50.085Z,30.47
2019-03-23T14:26:18.335Z,28.77
2019-03-23T14:28:46.852Z,27.43
2019-03-23T14:31:14.798Z,28.00
2019-03-23T14:33:43.627Z,28.67
2019-03-23T14:36:11.889Z,27.90
2019-03-23T14:38:40.788Z,27.10
2019-03-23T14:41:09.058Z,28.50
2019-03-23T14:43:37.335Z,31.40
2019-03-23T14:46:05.521Z,29.23
2019-03-23T14:48:33.455Z,30.10
2019-03-23T14:51:01.660Z,27.90
2019-03-23T14:53:30.441Z,27.17
2019-03-23T14:55:58.368Z,27.13
2019-03-23T14:58:26.645Z,28.17
2019-03-23T15:00:55.166Z,27.83
2019-03-23T15:03:23.230Z,28.43
2019-03-23T15:05:51.887Z,27.93
2019-03-23T15:08:20.386Z,28.70
2019-03-23T15:10:48.656Z,29.40
2019-03-23T15:13:17.262Z,28.27
2019-03-23T15:15:45.701Z,27.80
2019-03-23T15:18:14.073Z,29.03
2019-03-23T15:20:42.266Z,28.50
2019-03-23T15:23:11.189Z,30.50
2019-03-23T15:25:39.564Z,26.90
2019-03-23T15:28:08.055Z,28.37
2019-03-23T15:30:36.401Z,27.83
2019-03-23T15:33:04.681Z,27.43
2019-03-23T15:35:32.878Z,27.30
2019-03-23T15:38:00.800Z,27.23
2019-03-23T15:40:29.085Z,28.03
2019-03-23T15:42:57.606Z,28.10
2019-03-23T15:45:25.886Z,26.63
2019-03-23T15:47:54.554Z,26.93
2019-03-23T15:50:22.992Z,27.07
2019-03-23T15:52:51.589Z,27.73
2019-03-23T15:55:19.844Z,27.07
2019-03-23T15:57:48.022Z,28.87
2019-03-23T16:00:16.093Z,26.97
2019-03-23T16:02:44.034Z,27.57
2019-03-23T16:05:12.668Z,28.00
2019-03-23T16:07:40.943Z,28.63
2019-03-23T16:10:08.873Z,27.97
2019-03-23T16:12:37.792Z,28.20
2019-03-23T16:15:07.470Z,27.33
2019-03-23T16:17:35.990Z,27.30
2019-03-23T16:20:04.455Z,28.03
2019-03-23T16:22:32.752Z,27.33
2019-03-23T16:25:01.580Z,27.27
2019-03-23T16:27:30.165Z,27.33
2019-03-23T16:29:58.465Z,27.77
2019-03-23T16:32:26.753Z,27.50
2019-03-23T16:34:55.714Z,28.20
2019-03-23T16:37:24.599Z,27.97
2019-03-23T16:39:52.775Z,29.40
2019-03-23T16:42:21.116Z,27.90
2019-03-23T16:44:49.372Z,27.87
2019-03-23T16:47:17.285Z,28.80
2019-03-23T16:49:46.046Z,29.33
2019-03-23T16:52:13.990Z,59.43
2019-03-23T16:54:42.686Z,35.03
2019-03-23T16:57:10.961Z,34.27
2019-03-23T16:59:38.993Z,30.97
2019-03-23T17:02:06.937Z,30.00
2019-03-23T17:04:35.054Z,28.60
2019-03-23T17:07:03.071Z,32.50
2019-03-23T17:09:30.979Z,28.70
2019-03-23T17:11:59.458Z,28.27
2019-03-23T17:14:27.688Z,29.80
2019-03-23T17:16:55.974Z,28.10
2019-03-23T17:19:24.254Z,29.23
2019-03-23T17:21:52.454Z,28.40
2019-03-23T17:24:21.033Z,30.67
2019-03-23T17:26:49.626Z,33.20
2019-03-23T17:29:17.577Z,31.47
2019-03-23T17:31:45.850Z,30.83
2019-03-23T17:34:14.608Z,30.40
2019-03-23T17:36:42.962Z,30.03
2019-03-23T17:39:11.552Z,28.33
2019-03-23T17:41:40.089Z,29.20
2019-03-23T17:44:08.393Z,30.90
2019-03-23T17:46:36.638Z,28.87
2019-03-23T17:49:05.205Z,30.57
2019-03-23T17:51:33.429Z,30.40
2019-03-23T17:54:02.438Z,29.17
2019-03-23T17:56:30.416Z,29.57
2019-03-23T17:58:59.031Z,28.87
2019-03-23T18:01:27.770Z,28.50
2019-03-23T18:03:55.681Z,29.00
2019-03-23T18:06:24.025Z,29.10
2019-03-23T18:08:52.328Z,27.90
2019-03-23T18:11:20.593Z,27.87
2019-03-23T18:13:48.878Z,27.53
2019-03-23T18:16:17.582Z,27.97
2019-03-23T18:18:46.080Z,28.30
2019-03-23T18:21:14.007Z,28.00
2019-03-23T18:23:41.921Z,28.60
2019-03-23T18:26:10.558Z,27.00
2019-03-23T18:28:39.185Z,28.47
2019-03-23T18:31:07.402Z,28.67
2019-03-23T18:33:35.637Z,28.70
2019-03-23T18:36:03.565Z,29.60
2019-03-23T18:38:32.106Z,27.90
2019-03-23T18:41:00.021Z,28.37
2019-03-23T18:43:28.274Z,28.20
2019-03-23T18:45:56.543Z,30.13
2019-03-23T18:48:24.752Z,29.83
2019-03-23T18:50:53.577Z,29.33
2019-03-23T18:53:23.918Z,29.50
2019-03-23T18:55:52.213Z,30.70
2019-03-23T18:58:20.446Z,27.70
2019-03-23T19:00:48.388Z,31.27
2019-03-23T19:03:17.010Z,31.33
2019-03-23T19:05:45.374Z,30.67
2019-03-23T19:08:13.888Z,29.80
2019-03-23T19:10:42.451Z,30.10
2019-03-23T19:13:10.640Z,29.77
2019-03-23T19:15:38.561Z,29.93
2019-03-23T19:18:06.578Z,31.30
2019-03-23T19:20:34.640Z,31.07
2019-03-23T19:23:02.860Z,30.57
2019-03-23T19:25:31.467Z,30.70
2019-03-23T19:27:59.374Z,29.53
2019-03-23T19:30:27.402Z,29.37
2019-03-23T19:32:55.909Z,26.93
2019-03-23T19:35:24.499Z,27.63
2019-03-23T19:37:52.490Z,28.47
2019-03-23T19:40:20.753Z,29.97
2019-03-23T19:42:48.949Z,29.83
2019-03-23T19:45:17.453Z,28.07
2019-03-23T19:47:45.817Z,29.10
2019-03-23T19:50:14.009Z,29.00
2019-03-23T19:52:42.206Z,28.60
2019-03-23T19:55:10.122Z,29.80
2019-03-23T19:57:38.392Z,26.50
2019-03-23T20:00:06.794Z,24.57
2019-03-23T20:02:35.038Z,22.60
2019-03-23T20:05:03.200Z,23.90
2019-03-23T20:07:33.365Z,23.70
2019-03-23T20:10:01.201Z,25.00
2019-03-23T20:12:29.726Z,24.20
2019-03-23T20:14:58.589Z,24.10
2019-03-23T20:17:26.865Z,22.50
2019-03-23T20:19:55.080Z,23.23
2019-03-23T20:22:23.005Z,23.87
2019-03-23T20:24:51.265Z,23.20
2019-03-23T20:27:19.652Z,23.23
2019-03-23T20:29:47.645Z,23.93
2019-03-23T20:32:16.189Z,25.07
2019-03-23T20:34:44.471Z,27.20
2019-03-23T20:37:12.714Z,26.23
2019-03-23T20:39:40.667Z,26.20
2019-03-23T20:42:08.861Z,24.93
2019-03-23T20:44:36.805Z,24.27
2019-03-23T20:47:05.429Z,23.73
2019-03-23T20:49:33.671Z,21.37
2019-03-23T20:52:01.935Z,22.50
2019-03-23T20:54:30.382Z,21.90
2019-03-23T20:56:58.642Z,22.10
2019-03-23T20:59:26.918Z,23.80
2019-03-23T21:01:55.524Z,23.03
2019-03-23T21:04:23.493Z,23.17
2019-03-23T21:06:52.129Z,23.30
2019-03-23T21:09:20.460Z,24.03
2019-03-23T21:11:49.071Z,23.67
2019-03-23T21:14:20.456Z,24.60
2019-03-23T21:16:46.905Z,23.87
2019-03-23T21:19:15.232Z,24.40
2019-03-23T21:21:43.162Z,24.20
2019-03-23T21:24:11.480Z,23.87
2019-03-23T21:26:39.397Z,23.63
2019-03-23T21:29:07.945Z,24.33
2019-03-23T21:31:36.159Z,23.73
2019-03-23T21:34:04.394Z,24.13
2019-03-23T21:36:32.900Z,24.17
2019-03-23T21:39:01.173Z,22.70
2019-03-23T21:41:29.681Z,23.13
2019-03-23T21:43:58.200Z,23.47
2019-03-23T21:46:26.141Z,23.37
2019-03-23T21:48:54.413Z,23.50
2019-03-23T21:51:22.913Z,23.53
2019-03-23T21:53:51.170Z,22.97
2019-03-23T21:56:19.421Z,21.60
2019-03-23T21:58:48.009Z,23.53
2019-03-23T22:01:16.520Z,23.03
2019-03-23T22:03:45.152Z,23.40
2019-03-23T22:06:14.164Z,24.90
2019-03-23T22:08:42.381Z,23.63
2019-03-23T22:11:10.909Z,24.60
2019-03-23T22:13:39.646Z,24.70
2019-03-23T22:16:07.609Z,24.60
2019-03-23T22:18:36.274Z,24.30
2019-03-23T22:21:04.541Z,24.67
2019-03-23T22:23:32.457Z,24.17
2019-03-23T22:26:00.378Z,24.43
2019-03-23T22:28:29.073Z,23.10
2019-03-23T22:30:57.654Z,23.53
2019-03-23T22:33:26.237Z,23.37
2019-03-23T22:35:54.553Z,23.23
2019-03-23T22:38:22.745Z,23.37
2019-03-23T22:40:51.074Z,23.57
2019-03-23T22:43:19.713Z,24.47
2019-03-23T22:45:48.195Z,23.77
2019-03-23T22:48:16.425Z,22.63
2019-03-23T22:50:44.898Z,24.17
2019-03-23T22:53:13.536Z,24.33
2019-03-23T22:55:42.149Z,24.83
2019-03-23T22:58:10.829Z,23.70
2019-03-23T23:00:42.632Z,24.50
2019-03-23T23:03:11.476Z,23.70
2019-03-23T23:05:39.668Z,25.47
2019-03-23T23:08:08.148Z,26.33
2019-03-23T23:10:36.493Z,26.80
2019-03-23T23:13:04.409Z,25.07
2019-03-23T23:15:32.979Z,24.57
2019-03-23T23:18:01.885Z,26.27
2019-03-23T23:20:30.449Z,26.70
2019-03-23T23:22:58.704Z,25.10
2019-03-23T23:25:26.728Z,24.47
2019-03-23T23:27:55.038Z,24.20
2019-03-23T23:30:22.949Z,25.43
2019-03-23T23:32:51.181Z,26.50
2019-03-23T23:35:19.705Z,27.33
2019-03-23T23:37:47.945Z,27.50
2019-03-23T23:40:16.465Z,28.03
2019-03-23T23:42:45.033Z,28.23
2019-03-23T23:45:15.802Z,27.63
2019-03-23T23:47:43.749Z,27.60
2019-03-23T23:50:12.686Z,28.47
2019-03-23T23:52:40.969Z,27.20
2019-03-23T23:55:08.934Z,27.70
2019-03-23T23:57:36.897Z,28.63
